Time;durP1;ratioP1;P1;durP2;ratioP2;P2;SDS_P1;SDS_P2;PMS_P1;PMS_P2;Temp;Humidity;BMP_temperature;BMP_pressure;BME280_temperature;BME280_humidity;BME280_pressure;Samples;Min_cycle;Max_cycle;Signal;HPM_P1;HPM_P2
2023/01/09 00:00:49;;;;;;;35.87;19.13;;;7.70;99.90;;;;;;5066274;28;20293;-61
2023/01/09 00:03:16;;;;;;;35.50;19.50;;;7.60;99.90;;;;;;5068953;28;20202;-60
2023/01/09 00:05:44;;;;;;;36.63;18.33;;;7.60;99.90;;;;;;5068076;28;20225;-60
2023/01/09 00:08:11;;;;;;;36.90;19.27;;;7.60;99.90;;;;;;5066764;28;20291;-60
2023/01/09 00:10:38;;;;;;;31.20;17.67;;;7.60;99.90;;;;;;5065722;28;20285;-61
2023/01/09 00:13:05;;;;;;;31.57;17.20;;;7.50;99.90;;;;;;5066880;28;20189;-61
2023/01/09 00:15:34;;;;;;;38.67;18.93;;;7.50;99.90;;;;;;5067455;28;20201;-61
2023/01/09 00:18:01;;;;;;;33.83;18.50;;;7.50;99.90;;;;;;5066328;28;20190;-61
2023/01/09 00:20:28;;;;;;;35.63;18.67;;;7.50;99.90;;;;;;5067660;28;20194;-61
2023/01/09 00:22:55;;;;;;;38.40;19.97;;;7.50;99.90;;;;;;5065223;28;20223;-61
2023/01/09 00:25:22;;;;;;;38.13;18.80;;;7.50;99.90;;;;;;5069779;28;20189;-61
2023/01/09 00:27:49;;;;;;;34.90;18.43;;;7.40;99.90;;;;;;5068016;28;20209;-61
2023/01/09 00:30:17;;;;;;;35.93;18.20;;;7.40;99.90;;;;;;5068786;28;20239;-61
2023/01/09 00:32:45;;;;;;;36.33;18.97;;;7.40;99.90;;;;;;5065634;28;20189;-61
2023/01/09 00:35:16;;;;;;;33.63;19.17;;;7.40;99.90;;;;;;5069184;28;20200;-61
2023/01/09 00:37:43;;;;;;;40.13;20.07;;;7.40;99.90;;;;;;5066985;28;20197;-61
2023/01/09 00:40:13;;;;;;;37.27;19.17;;;7.40;99.90;;;;;;5069622;28;20189;-60
2023/01/09 00:42:40;;;;;;;39.13;18.60;;;7.40;99.90;;;;;;5066261;28;20185;-61
2023/01/09 00:45:11;;;;;;;35.67;18.40;;;7.40;99.90;;;;;;5068270;28;20752;-61
2023/01/09 00:47:42;;;;;;;35.90;18.83;;;7.50;99.90;;;;;;5066779;28;20312;-61
2023/01/09 00:50:15;;;;;;;44.60;20.50;;;7.50;99.90;;;;;;5065951;28;20213;-60
2023/01/09 00:52:43;;;;;;;35.70;19.47;;;7.50;99.90;;;;;;5068470;28;20197;-61
2023/01/09 00:55:11;;;;;;;39.77;20.67;;;7.50;99.90;;;;;;5066585;28;20240;-60
2023/01/09 00:57:38;;;;;;;42.90;21.30;;;7.40;99.90;;;;;;5066986;28;20206;-60
2023/01/09 01:00:07;;;;;;;36.87;18.57;;;7.40;99.90;;;;;;5067496;28;20220;-61
2023/01/09 01:02:34;;;;;;;40.77;22.03;;;7.40;99.90;;;;;;5064077;28;20577;-60
2023/01/09 01:07:47;;;;;;;41.40;20.17;;;7.40;99.90;;;;;;5065164;28;20293;-61
2023/01/09 01:10:18;;;;;;;36.77;19.40;;;7.40;99.90;;;;;;5064121;28;20551;-61
2023/01/09 01:12:47;;;;;;;39.20;21.30;;;7.40;99.90;;;;;;5064211;28;20212;-61
2023/01/09 01:15:15;;;;;;;41.50;20.40;;;7.40;99.90;;;;;;5063541;28;20796;-61
2023/01/09 01:17:42;;;;;;;41.73;21.33;;;7.40;99.90;;;;;;5064960;28;20197;-61
2023/01/09 01:20:13;;;;;;;44.73;21.33;;;7.40;99.90;;;;;;5062413;28;20193;-61
2023/01/09 01:22:41;;;;;;;42.00;20.40;;;7.40;99.90;;;;;;5064550;28;20190;-61
2023/01/09 01:25:11;;;;;;;42.20;21.93;;;7.40;99.90;;;;;;5061240;28;20186;-61
2023/01/09 01:27:38;;;;;;;43.73;21.47;;;7.40;99.90;;;;;;5066077;28;20181;-61
2023/01/09 01:30:08;;;;;;;41.33;21.27;;;7.40;99.90;;;;;;5066781;28;20216;-61
2023/01/09 01:32:36;;;;;;;41.33;20.47;;;7.40;99.90;;;;;;5066214;28;20212;-61
2023/01/09 01:35:03;;;;;;;40.70;20.73;;;7.40;99.90;;;;;;5066694;28;20286;-61
2023/01/09 01:37:31;;;;;;;43.53;20.77;;;7.30;99.90;;;;;;5065306;28;20543;-61
2023/01/09 01:39:58;;;;;;;39.07;20.03;;;7.30;99.90;;;;;;5065555;28;20608;-60
2023/01/09 01:42:27;;;;;;;40.37;21.00;;;7.30;99.90;;;;;;5067202;28;20197;-61
2023/01/09 01:45:04;;;;;;;42.70;21.20;;;7.30;99.90;;;;;;5067717;28;20274;-60
2023/01/09 01:47:36;;;;;;;42.80;21.40;;;7.30;99.90;;;;;;5064807;28;20199;-60
2023/01/09 01:50:08;;;;;;;42.97;21.97;;;7.30;99.90;;;;;;5066648;28;20197;-60
2023/01/09 01:52:37;;;;;;;44.80;21.60;;;7.20;99.90;;;;;;5067341;28;20186;-61
2023/01/09 01:55:07;;;;;;;40.40;20.77;;;7.30;99.90;;;;;;5063797;28;20223;-61
2023/01/09 01:57:37;;;;;;;40.73;20.80;;;7.30;99.90;;;;;;5068063;28;20193;-60
2023/01/09 02:00:05;;;;;;;45.90;22.27;;;7.30;99.90;;;;;;5063971;28;20269;-61
2023/01/09 02:02:33;;;;;;;46.47;22.70;;;7.30;99.90;;;;;;5507150;22;20234;-60
2023/01/09 02:05:04;;;;;;;41.37;20.90;;;7.30;99.90;;;;;;5022081;28;20264;-60
2023/01/09 02:07:31;;;;;;;44.07;21.73;;;7.40;99.90;;;;;;5027080;28;20309;-60
2023/01/09 02:09:59;;;;;;;47.67;22.30;;;7.40;99.90;;;;;;5027445;28;20210;-62
2023/01/09 02:12:29;;;;;;;47.50;22.40;;;7.40;99.90;;;;;;5026829;28;20210;-61
2023/01/09 02:15:02;;;;;;;45.93;21.63;;;7.30;99.90;;;;;;5028221;28;20256;-60
2023/01/09 02:17:57;;;;;;;39.27;20.03;;;7.40;99.90;;;;;;5028877;28;20652;-61
2023/01/09 02:20:44;;;;;;;38.80;20.03;;;7.40;99.90;;;;;;5024874;28;20206;-61
2023/01/09 02:23:57;;;;;;;44.07;21.67;;;7.40;99.90;;;;;;5028404;28;20234;-61
2023/01/09 02:26:44;;;;;;;40.13;21.50;;;7.40;99.90;;;;;;4969907;28;20209;-60
2023/01/09 02:29:43;;;;;;;42.30;20.53;;;7.40;99.90;;;;;;5029837;28;20206;-60
2023/01/09 02:32:23;;;;;;;43.90;22.67;;;7.40;99.90;;;;;;5026532;28;20202;-61
2023/01/09 02:34:57;;;;;;;44.10;22.20;;;7.40;99.90;;;;;;5026825;28;20661;-60
2023/01/09 02:37:35;;;;;;;45.40;20.70;;;7.40;99.90;;;;;;5024529;28;20195;-61
2023/01/09 02:40:09;;;;;;;52.33;23.83;;;7.40;99.90;;;;;;5026933;28;20727;-61
2023/01/09 02:42:39;;;;;;;48.73;22.90;;;7.40;99.90;;;;;;5026068;28;20199;-61
2023/01/09 02:45:07;;;;;;;52.10;23.63;;;7.40;99.90;;;;;;5025392;28;20243;-61
2023/01/09 02:47:43;;;;;;;52.67;24.57;;;7.40;99.90;;;;;;5025923;28;20657;-61
2023/01/09 02:50:15;;;;;;;51.77;23.93;;;7.40;99.90;;;;;;5026602;28;20209;-62
2023/01/09 02:53:19;;;;;;;57.60;24.67;;;7.40;99.90;;;;;;5030361;28;20195;-60
2023/01/09 02:56:02;;;;;;;48.27;22.67;;;7.40;99.90;;;;;;5029742;28;20668;-61
2023/01/09 02:58:45;;;;;;;55.30;24.27;;;7.40;99.90;;;;;;5029055;28;20187;-61
2023/01/09 03:01:24;;;;;;;51.90;23.20;;;7.40;99.90;;;;;;5029971;28;20195;-61
2023/01/09 03:04:01;;;;;;;49.33;22.57;;;7.40;99.90;;;;;;5030486;28;20642;-61
2023/01/09 03:06:34;;;;;;;52.17;23.60;;;7.30;99.90;;;;;;5032459;28;20598;-61
2023/01/09 03:09:06;;;;;;;60.60;26.93;;;7.30;99.90;;;;;;5028135;28;20191;-61
2023/01/09 03:11:38;;;;;;;64.67;26.60;;;7.40;99.90;;;;;;5025638;28;20577;-61
2023/01/09 03:14:10;;;;;;;48.87;24.57;;;7.40;99.90;;;;;;5029454;28;20210;-62
2023/01/09 03:16:38;;;;;;;51.77;24.47;;;7.30;99.90;;;;;;5029335;28;20221;-61
2023/01/09 03:19:10;;;;;;;55.20;24.37;;;7.30;99.90;;;;;;5030986;28;20206;-61
2023/01/09 03:21:38;;;;;;;49.40;24.10;;;7.20;99.90;;;;;;5033813;28;20194;-61
2023/01/09 03:24:06;;;;;;;45.67;22.60;;;7.30;99.90;;;;;;5029540;28;20199;-61
2023/01/09 03:26:34;;;;;;;50.40;23.90;;;7.30;99.90;;;;;;5029460;28;20671;-61
2023/01/09 03:29:01;;;;;;;42.57;21.57;;;7.30;99.90;;;;;;5027543;28;20202;-61
2023/01/09 03:31:29;;;;;;;52.10;23.77;;;7.30;99.90;;;;;;5027242;28;20582;-60
2023/01/09 03:33:56;;;;;;;47.43;24.20;;;7.40;99.90;;;;;;5029587;28;20244;-60
2023/01/09 03:36:25;;;;;;;49.00;23.73;;;7.40;99.90;;;;;;5029943;28;20194;-60
2023/01/09 03:38:52;;;;;;;48.63;22.90;;;7.40;99.90;;;;;;5027994;28;20190;-60
2023/01/09 03:41:19;;;;;;;46.53;21.43;;;7.30;99.90;;;;;;5030245;28;20199;-60
2023/01/09 03:43:47;;;;;;;52.63;24.33;;;7.30;99.90;;;;;;5029491;28;20621;-61
2023/01/09 03:46:15;;;;;;;58.93;25.03;;;7.30;99.90;;;;;;5027452;28;20202;-60
2023/01/09 03:48:42;;;;;;;57.10;25.17;;;7.30;99.90;;;;;;5029939;28;20221;-61
2023/01/09 03:51:09;;;;;;;52.43;23.37;;;7.30;99.90;;;;;;5029636;28;20692;-62
2023/01/09 03:53:38;;;;;;;56.03;24.03;;;7.30;99.90;;;;;;5029606;28;20303;-61
2023/01/09 03:56:06;;;;;;;48.10;22.83;;;7.30;99.90;;;;;;5029235;28;20191;-61
2023/01/09 03:58:33;;;;;;;51.20;24.33;;;7.30;99.90;;;;;;5030163;28;20209;-60
2023/01/09 04:01:02;;;;;;;46.53;23.27;;;7.30;99.90;;;;;;5029103;28;20193;-61
2023/01/09 04:03:29;;;;;;;47.10;23.00;;;7.30;99.90;;;;;;5024710;28;20225;-61
2023/01/09 04:05:56;;;;;;;44.37;22.20;;;7.30;99.90;;;;;;5028134;28;20197;-62
2023/01/09 04:08:24;;;;;;;48.80;23.50;;;7.30;99.90;;;;;;5031351;28;20213;-61
2023/01/09 04:10:52;;;;;;;42.93;21.10;;;7.30;99.90;;;;;;5029963;28;20577;-61
2023/01/09 04:13:20;;;;;;;46.40;23.67;;;7.30;99.90;;;;;;5029034;28;20202;-61
2023/01/09 04:15:47;;;;;;;49.30;23.30;;;7.40;99.90;;;;;;5028936;28;20577;-61
2023/01/09 04:18:14;;;;;;;52.30;24.37;;;7.40;99.90;;;;;;5028575;28;20202;-61
2023/01/09 04:20:42;;;;;;;50.33;23.53;;;7.30;99.90;;;;;;5029473;28;20229;-61
2023/01/09 04:23:09;;;;;;;48.17;22.23;;;7.30;99.90;;;;;;5030020;28;20756;-61
2023/01/09 04:25:36;;;;;;;48.07;21.53;;;7.30;99.90;;;;;;5029482;28;20199;-61
2023/01/09 04:28:05;;;;;;;51.53;23.83;;;7.30;99.90;;;;;;5029164;28;20576;-61
2023/01/09 04:30:32;;;;;;;48.17;22.73;;;7.30;99.90;;;;;;5031459;28;20686;-62
2023/01/09 04:33:00;;;;;;;58.70;25.00;;;7.30;99.90;;;;;;5028475;28;20676;-61
2023/01/09 04:35:27;;;;;;;50.27;22.40;;;7.30;99.90;;;;;;5028964;28;20198;-62
2023/01/09 04:37:54;;;;;;;53.27;23.67;;;7.30;99.90;;;;;;5029225;28;20717;-61
2023/01/09 04:40:21;;;;;;;51.77;23.73;;;7.30;99.90;;;;;;5029277;28;20285;-62
2023/01/09 04:42:48;;;;;;;49.50;23.73;;;7.30;99.90;;;;;;5026697;28;20669;-61
2023/01/09 04:45:17;;;;;;;51.77;24.70;;;7.40;99.90;;;;;;5029329;28;20218;-62
2023/01/09 04:47:44;;;;;;;46.23;22.53;;;7.30;99.90;;;;;;5026765;28;20195;-62
2023/01/09 04:50:12;;;;;;;51.20;23.23;;;7.30;99.90;;;;;;5027278;28;20214;-61
2023/01/09 04:52:40;;;;;;;51.73;24.47;;;7.30;99.90;;;;;;5028581;28;20210;-61
2023/01/09 04:55:08;;;;;;;56.83;24.27;;;7.30;99.90;;;;;;5027148;28;20199;-61
2023/01/09 04:57:35;;;;;;;50.67;23.90;;;7.30;99.90;;;;;;5029034;28;20505;-60
2023/01/09 05:00:08;;;;;;;55.03;24.30;;;7.30;99.90;;;;;;5029128;28;20186;-62
2023/01/09 05:02:37;;;;;;;58.10;26.63;;;7.30;99.90;;;;;;5023864;28;20222;-61
2023/01/09 05:05:05;;;;;;;51.57;25.23;;;7.30;99.90;;;;;;5029965;28;20193;-61
2023/01/09 05:07:32;;;;;;;54.73;25.40;;;7.30;99.90;;;;;;5031815;28;20202;-62
2023/01/09 05:10:00;;;;;;;51.30;24.30;;;7.30;99.90;;;;;;5026774;28;20202;-62
2023/01/09 05:12:27;;;;;;;57.73;24.97;;;7.30;99.90;;;;;;5031477;28;20213;-61
2023/01/09 05:14:54;;;;;;;53.03;24.63;;;7.40;99.90;;;;;;5027374;28;20260;-60
2023/01/09 05:17:21;;;;;;;50.93;23.83;;;7.40;99.90;;;;;;5027331;28;20739;-61
2023/01/09 05:19:49;;;;;;;54.33;24.90;;;7.40;99.90;;;;;;5027973;28;20209;-61
2023/01/09 05:22:16;;;;;;;55.63;25.57;;;7.40;99.90;;;;;;5025118;28;20213;-62
2023/01/09 05:24:44;;;;;;;53.67;25.47;;;7.40;99.90;;;;;;5028156;28;20241;-62
2023/01/09 05:27:11;;;;;;;54.10;24.70;;;7.40;99.90;;;;;;5031808;28;20202;-62
2023/01/09 05:29:38;;;;;;;53.03;24.57;;;7.40;99.90;;;;;;5028543;28;20278;-62
2023/01/09 05:32:05;;;;;;;51.27;24.73;;;7.40;99.90;;;;;;5027286;28;20217;-62
2023/01/09 05:34:32;;;;;;;49.90;24.97;;;7.40;99.90;;;;;;5028185;28;20221;-61
2023/01/09 05:37:01;;;;;;;50.60;23.97;;;7.40;99.90;;;;;;5028177;28;20217;-62
2023/01/09 05:39:28;;;;;;;47.97;23.37;;;7.40;99.90;;;;;;5027514;28;20198;-61
2023/01/09 05:41:55;;;;;;;55.77;25.27;;;7.40;99.90;;;;;;5027532;28;20209;-62
2023/01/09 05:44:22;;;;;;;58.73;26.50;;;7.40;99.90;;;;;;5027730;28;20209;-61
2023/01/09 05:46:49;;;;;;;56.53;25.00;;;7.40;99.90;;;;;;5025699;28;20297;-62
2023/01/09 05:49:16;;;;;;;59.60;26.20;;;7.40;99.90;;;;;;5027723;28;20198;-62
2023/01/09 05:51:43;;;;;;;47.37;22.67;;;7.40;99.90;;;;;;5026020;28;20221;-61
2023/01/09 05:54:12;;;;;;;56.03;24.47;;;7.30;99.90;;;;;;5027710;28;20218;-61
2023/01/09 05:56:39;;;;;;;57.97;26.07;;;7.30;99.90;;;;;;5028049;28;20274;-61
2023/01/09 05:59:06;;;;;;;55.13;25.47;;;7.40;99.90;;;;;;5026464;28;20202;-61
2023/01/09 06:01:33;;;;;;;50.67;23.57;;;7.30;99.90;;;;;;5025135;28;20191;-61
2023/01/09 06:04:00;;;;;;;54.77;26.67;;;7.30;99.90;;;;;;5027483;28;20245;-60
2023/01/09 06:06:27;;;;;;;54.30;26.03;;;7.30;99.90;;;;;;5026725;28;20195;-60
2023/01/09 06:08:54;;;;;;;55.13;24.97;;;7.30;99.90;;;;;;5027873;28;20252;-60
2023/01/09 06:11:23;;;;;;;56.70;24.40;;;7.20;99.90;;;;;;5026555;28;20826;-61
2023/01/09 06:13:50;;;;;;;59.23;25.63;;;7.30;99.90;;;;;;5027257;28;20232;-61
2023/01/09 06:16:17;;;;;;;51.47;24.73;;;7.30;99.90;;;;;;5026741;28;20203;-61
2023/01/09 06:18:44;;;;;;;57.40;26.63;;;7.30;99.90;;;;;;5027627;28;20226;-62
2023/01/09 06:21:11;;;;;;;48.07;23.10;;;7.30;99.90;;;;;;5027978;28;20186;-62
2023/01/09 06:23:38;;;;;;;49.97;22.60;;;7.40;99.90;;;;;;5028782;28;20202;-61
2023/01/09 06:26:05;;;;;;;54.87;25.10;;;7.40;99.90;;;;;;5028328;28;20198;-61
2023/01/09 06:28:34;;;;;;;52.53;24.57;;;7.40;99.90;;;;;;5031858;28;20206;-61
2023/01/09 06:31:01;;;;;;;48.47;23.30;;;7.40;99.90;;;;;;5031968;28;20662;-60
2023/01/09 06:33:28;;;;;;;57.00;25.03;;;7.40;99.90;;;;;;5032587;28;20231;-60
2023/01/09 06:35:55;;;;;;;54.27;24.10;;;7.40;99.90;;;;;;5027285;28;20202;-60
2023/01/09 06:38:22;;;;;;;57.60;24.93;;;7.30;99.90;;;;;;5029660;28;20209;-61
2023/01/09 06:40:50;;;;;;;55.90;25.10;;;7.40;99.90;;;;;;5030806;28;20250;-60
2023/01/09 06:43:17;;;;;;;55.43;25.10;;;7.40;99.90;;;;;;5028863;28;20230;-60
2023/01/09 06:45:45;;;;;;;56.23;23.87;;;7.30;99.90;;;;;;5030810;28;20199;-60
2023/01/09 06:48:13;;;;;;;61.23;26.37;;;7.30;99.90;;;;;;5030827;28;20208;-60
2023/01/09 06:50:40;;;;;;;56.67;25.77;;;7.30;99.90;;;;;;5030591;28;20214;-61
2023/01/09 06:53:07;;;;;;;55.73;26.17;;;7.30;99.90;;;;;;5031405;28;20252;-61
2023/01/09 06:55:34;;;;;;;66.03;27.37;;;7.30;99.90;;;;;;5028915;28;20228;-61
2023/01/09 06:58:01;;;;;;;56.27;25.80;;;7.30;99.90;;;;;;5031490;28;21099;-60
2023/01/09 07:00:30;;;;;;;59.43;26.23;;;7.30;99.90;;;;;;5028091;28;20214;-62
2023/01/09 07:02:58;;;;;;;63.63;25.80;;;7.30;99.90;;;;;;5022175;28;20249;-60
2023/01/09 07:05:26;;;;;;;71.73;28.43;;;7.30;99.90;;;;;;5021744;28;20226;-61
2023/01/09 07:07:53;;;;;;;62.97;26.17;;;7.30;99.90;;;;;;5029298;28;20223;-61
2023/01/09 07:10:20;;;;;;;62.00;27.40;;;7.30;99.90;;;;;;5026907;28;20699;-60
2023/01/09 07:12:47;;;;;;;58.67;25.67;;;7.30;99.90;;;;;;5028746;28;20245;-60
2023/01/09 07:15:14;;;;;;;66.90;27.63;;;7.20;99.90;;;;;;5028148;28;20194;-60
2023/01/09 07:17:42;;;;;;;68.40;30.17;;;7.20;99.90;;;;;;5025695;28;20220;-61
2023/01/09 07:20:11;;;;;;;77.10;33.60;;;7.20;99.90;;;;;;5027449;28;20881;-60
2023/01/09 07:22:38;;;;;;;69.23;29.17;;;7.20;99.90;;;;;;5029262;28;20190;-61
2023/01/09 07:25:06;;;;;;;55.43;25.50;;;7.20;99.90;;;;;;5027936;28;20277;-61
2023/01/09 07:27:33;;;;;;;53.33;23.87;;;7.20;99.90;;;;;;5029217;28;20194;-61
2023/01/09 07:30:01;;;;;;;51.60;24.10;;;7.30;99.90;;;;;;5028128;28;20191;-61
2023/01/09 07:32:28;;;;;;;51.13;24.63;;;7.30;99.90;;;;;;5025560;28;20310;-61
2023/01/09 07:34:55;;;;;;;49.90;23.87;;;7.30;99.90;;;;;;5027292;28;20210;-61
2023/01/09 07:37:23;;;;;;;52.77;24.73;;;7.30;99.90;;;;;;5028481;28;20221;-61
2023/01/09 07:39:50;;;;;;;63.93;26.17;;;7.40;99.90;;;;;;5027916;28;20214;-61
2023/01/09 07:42:18;;;;;;;57.47;26.83;;;7.40;99.90;;;;;;5027821;28;20264;-61
2023/01/09 07:44:45;;;;;;;52.03;25.03;;;7.40;99.90;;;;;;5026785;28;20570;-61
2023/01/09 07:47:12;;;;;;;54.57;25.17;;;7.40;99.90;;;;;;5027419;28;20204;-61
2023/01/09 07:49:39;;;;;;;53.47;24.73;;;7.40;99.90;;;;;;5026342;28;20202;-61
2023/01/09 07:52:06;;;;;;;54.07;24.37;;;7.40;99.90;;;;;;5029526;28;20207;-61
2023/01/09 07:54:35;;;;;;;44.37;21.17;;;7.40;99.90;;;;;;5027357;28;20237;-61
2023/01/09 07:57:02;;;;;;;49.03;22.90;;;7.50;99.90;;;;;;5028358;28;20209;-60
2023/01/09 07:59:29;;;;;;;43.63;21.47;;;7.50;99.90;;;;;;5025592;28;20198;-60
2023/01/09 08:01:56;;;;;;;52.37;24.10;;;7.60;99.90;;;;;;5027016;28;20213;-60
2023/01/09 08:04:24;;;;;;;45.47;21.43;;;7.60;99.90;;;;;;5029092;28;20202;-63
2023/01/09 08:06:51;;;;;;;47.60;23.00;;;7.60;99.90;;;;;;5027674;28;20194;-61
2023/01/09 08:09:18;;;;;;;47.77;22.63;;;7.60;99.90;;;;;;5029022;28;20206;-61
2023/01/09 08:11:46;;;;;;;57.30;25.53;;;7.60;99.90;;;;;;5028105;28;20226;-61
2023/01/09 08:14:14;;;;;;;47.63;21.73;;;7.60;99.90;;;;;;5027522;28;20256;-60
2023/01/09 08:16:41;;;;;;;47.33;22.17;;;7.60;99.90;;;;;;5027811;28;20210;-61
2023/01/09 08:19:10;;;;;;;53.73;24.67;;;7.60;99.90;;;;;;5026543;28;20225;-62
2023/01/09 08:21:38;;;;;;;51.10;22.90;;;7.60;99.90;;;;;;5025482;28;20348;-60
2023/01/09 08:24:05;;;;;;;51.50;23.17;;;7.50;99.90;;;;;;5026765;28;20195;-60
2023/01/09 08:26:32;;;;;;;45.07;20.67;;;7.50;99.90;;;;;;5027866;28;20739;-60
2023/01/09 08:29:01;;;;;;;37.97;18.67;;;7.50;99.90;;;;;;5028963;28;20209;-61
2023/01/09 08:31:28;;;;;;;49.60;22.00;;;7.50;99.90;;;;;;5024760;28;20222;-60
2023/01/09 08:33:55;;;;;;;45.70;21.27;;;7.60;99.90;;;;;;5025314;28;20194;-61
2023/01/09 08:36:22;;;;;;;46.60;22.47;;;6.20;99.90;;;;;;5027554;28;20216;-60
2023/01/09 08:38:49;;;;;;;40.73;19.80;;;7.60;99.90;;;;;;5027276;28;20197;-62
2023/01/09 08:47:05;;;;;;;45.37;21.10;;;7.60;99.90;;;;;;5026723;28;20216;-61
2023/01/09 08:49:32;;;;;;;43.97;20.60;;;7.60;99.90;;;;;;5025988;28;20202;-61
2023/01/09 08:52:00;;;;;;;43.10;19.17;;;7.70;99.90;;;;;;5024455;28;20226;-62
2023/01/09 08:54:27;;;;;;;41.40;20.40;;;7.70;99.90;;;;;;5026512;28;20195;-61
2023/01/09 08:56:54;;;;;;;41.47;21.20;;;7.70;99.90;;;;;;5027543;28;20199;-61
2023/01/09 08:59:23;;;;;;;45.50;21.53;;;7.70;99.90;;;;;;5026792;28;20203;-61
2023/01/09 09:01:50;;;;;;;45.63;20.17;;;7.70;99.90;;;;;;5025046;28;20702;-61
2023/01/09 09:04:17;;;;;;;40.97;19.23;;;7.70;99.90;;;;;;5024500;28;20233;-61
2023/01/09 09:06:44;;;;;;;41.83;19.27;;;7.70;99.90;;;;;;5026485;28;20557;-62
2023/01/09 09:09:11;;;;;;;48.83;22.27;;;7.70;99.90;;;;;;5027167;28;20195;-61
2023/01/09 09:11:39;;;;;;;38.87;18.87;;;7.70;99.90;;;;;;5025554;28;20225;-62
2023/01/09 09:15:11;;;;;;;52.20;22.57;;;7.70;99.90;;;;;;5024243;28;20737;-61
2023/01/09 09:16:55;;;;;;;44.67;20.67;;;7.70;99.90;;;;;;5026497;28;20194;-61
2023/01/09 09:19:22;;;;;;;49.90;21.63;;;7.70;99.90;;;;;;5025949;28;20199;-61
2023/01/09 09:21:49;;;;;;;48.33;22.17;;;7.70;99.90;;;;;;5025868;28;20217;-60
2023/01/09 09:24:16;;;;;;;49.53;21.57;;;7.70;99.90;;;;;;5026068;28;20238;-60
2023/01/09 09:26:43;;;;;;;47.70;21.60;;;7.70;99.90;;;;;;5026597;28;20288;-60
2023/01/09 09:29:10;;;;;;;50.63;21.83;;;7.70;99.90;;;;;;5026498;28;20206;-60
2023/01/09 09:31:38;;;;;;;44.27;20.60;;;7.70;99.90;;;;;;5025319;28;20218;-60
2023/01/09 09:34:07;;;;;;;46.30;22.63;;;7.70;99.90;;;;;;5023035;28;20240;-60
2023/01/09 09:36:34;;;;;;;51.13;22.77;;;7.70;99.90;;;;;;5026110;28;20190;-61
2023/01/09 09:39:02;;;;;;;46.43;22.43;;;7.60;99.90;;;;;;5025469;28;20191;-60
2023/01/09 09:44:52;;;;;;;50.17;22.43;;;7.60;99.90;;;;;;5023504;28;20197;-60
2023/01/09 09:47:40;;;;;;;47.63;21.63;;;7.50;99.90;;;;;;5024468;28;20187;-61
2023/01/09 09:50:23;;;;;;;45.27;20.73;;;7.40;99.90;;;;;;5023844;28;20254;-60
2023/01/09 09:52:57;;;;;;;46.93;22.13;;;7.40;99.90;;;;;;5025083;28;20221;-61
2023/01/09 09:55:30;;;;;;;43.83;20.27;;;7.40;99.90;;;;;;5025630;28;20201;-61
2023/01/09 09:58:00;;;;;;;42.73;20.83;;;7.40;99.90;;;;;;5026476;28;20561;-61
2023/01/09 10:00:28;;;;;;;42.90;20.13;;;7.40;99.90;;;;;;5025712;28;20274;-61
2023/01/09 10:03:00;;;;;;;52.00;23.00;;;7.40;99.90;;;;;;5027615;28;20308;-61
2023/01/09 10:05:31;;;;;;;46.20;21.90;;;7.30;99.90;;;;;;5028941;28;20194;-61
2023/01/09 10:08:03;;;;;;;54.50;23.20;;;7.30;99.90;;;;;;5030096;28;20186;-61
2023/01/09 10:10:35;;;;;;;45.90;21.63;;;7.30;99.90;;;;;;5028964;28;20197;-61
2023/01/09 10:14:03;;;;;;;46.97;22.33;;;7.30;99.90;;;;;;5028322;28;20209;-61
2023/01/09 10:16:01;;;;;;;47.27;21.93;;;7.30;99.90;;;;;;5029925;28;20246;-61
2023/01/09 10:18:38;;;;;;;66.10;29.07;;;7.20;99.90;;;;;;5029410;28;20190;-61
2023/01/09 10:21:15;;;;;;;52.83;24.23;;;8.20;99.90;;;;;;5028055;28;20217;-61
2023/01/09 10:24:01;;;;;;;43.70;20.50;;;8.60;99.90;;;;;;5028038;28;20194;-60
2023/01/09 10:26:32;;;;;;;49.80;22.67;;;7.20;99.90;;;;;;5025683;28;20584;-61
2023/01/09 10:29:21;;;;;;;52.13;22.00;;;7.20;99.90;;;;;;5029502;28;20199;-60
2023/01/09 10:32:02;;;;;;;55.20;23.80;;;7.20;99.90;;;;;;5028729;28;20242;-60
2023/01/09 10:34:42;;;;;;;57.90;24.97;;;7.20;99.90;;;;;;5028229;28;20491;-61
2023/01/09 10:37:13;;;;;;;53.67;23.83;;;7.20;99.90;;;;;;5027351;28;20217;-60
2023/01/09 10:39:45;;;;;;;53.77;24.37;;;7.20;99.90;;;;;;5028070;28;20214;-60
2023/01/09 10:42:20;;;;;;;47.87;21.80;;;7.20;99.90;;;;;;5027858;28;20195;-61
2023/01/09 10:44:57;;;;;;;44.43;21.37;;;7.20;99.90;;;;;;5028854;28;20213;-62
2023/01/09 10:47:29;;;;;;;42.73;20.70;;;7.30;99.90;;;;;;5028687;28;20302;-61
2023/01/09 10:49:57;;;;;;;43.40;20.03;;;7.40;99.90;;;;;;5028362;28;20592;-60
2023/01/09 10:52:33;;;;;;;53.13;24.60;;;7.30;99.90;;;;;;5029464;28;20206;-61
2023/01/09 10:55:13;;;;;;;52.70;23.47;;;7.40;99.90;;;;;;5028085;28;20296;-61
2023/01/09 10:57:45;;;;;;;57.17;24.13;;;7.40;99.90;;;;;;5029103;28;20221;-61
2023/01/09 11:00:18;;;;;;;57.20;24.47;;;7.40;99.90;;;;;;5029672;28;20195;-61
2023/01/09 11:02:45;;;;;;;57.33;25.50;;;7.40;99.90;;;;;;5023441;28;20229;-60
2023/01/09 11:05:16;;;;;;;54.00;24.23;;;7.40;99.90;;;;;;5027411;28;20206;-61
2023/01/09 11:07:49;;;;;;;55.13;23.93;;;7.50;99.90;;;;;;5031602;28;20205;-61
2023/01/09 11:10:16;;;;;;;61.03;27.17;;;7.50;99.90;;;;;;5033446;28;20602;-60
2023/01/09 11:12:44;;;;;;;64.93;28.07;;;7.50;99.90;;;;;;5027934;28;20215;-61
2023/01/09 11:15:27;;;;;;;53.93;24.23;;;7.50;99.90;;;;;;5029150;28;20252;-60
2023/01/09 11:18:15;;;;;;;55.30;24.37;;;7.50;99.90;;;;;;5027260;28;20674;-59
2023/01/09 11:20:43;;;;;;;47.10;22.43;;;7.50;99.90;;;;;;5027170;28;20269;-61
2023/01/09 11:23:31;;;;;;;56.27;23.23;;;7.60;99.90;;;;;;5029778;28;20545;-60
2023/01/09 11:26:00;;;;;;;49.00;22.37;;;7.50;99.90;;;;;;5029604;28;20192;-61
2023/01/09 11:28:28;;;;;;;41.97;19.93;;;7.50;99.90;;;;;;5030883;28;20603;-61
2023/01/09 11:30:59;;;;;;;51.20;22.93;;;7.50;99.90;;;;;;5029108;28;20294;-60
2023/01/09 11:33:29;;;;;;;44.33;21.33;;;7.50;99.90;;;;;;5027037;28;20566;-61
2023/01/09 11:36:03;;;;;;;43.60;20.90;;;7.60;99.90;;;;;;5028123;28;20326;-61
2023/01/09 11:38:45;;;;;;;42.87;20.63;;;7.60;99.90;;;;;;5028974;28;20273;-60
2023/01/09 11:41:18;;;;;;;47.40;21.40;;;7.60;99.90;;;;;;5028202;28;20252;-61
2023/01/09 11:43:48;;;;;;;47.83;20.90;;;7.70;99.90;;;;;;5025649;28;20189;-61
2023/01/09 11:46:32;;;;;;;40.07;18.33;;;7.70;99.90;;;;;;5028810;28;20201;-61
2023/01/09 11:49:01;;;;;;;42.63;19.40;;;7.80;99.90;;;;;;5026962;28;20653;-60
2023/01/09 11:51:30;;;;;;;44.10;20.73;;;7.80;99.90;;;;;;5027342;28;20187;-61
2023/01/09 11:54:18;;;;;;;52.10;24.43;;;7.80;99.90;;;;;;5026391;28;20301;-61
2023/01/09 11:56:46;;;;;;;54.80;25.13;;;7.80;99.90;;;;;;5028021;28;20194;-61
2023/01/09 11:59:15;;;;;;;46.10;20.80;;;7.80;99.90;;;;;;5026800;28;20206;-62
2023/01/09 12:02:02;;;;;;;53.90;24.07;;;7.80;99.90;;;;;;5028225;28;20203;-61
2023/01/09 12:04:35;;;;;;;47.20;21.77;;;7.80;99.90;;;;;;5027215;28;20714;-62
2023/01/09 12:07:22;;;;;;;56.00;24.43;;;7.80;99.90;;;;;;5029274;28;20248;-61
2023/01/09 12:10:01;;;;;;;54.87;24.23;;;7.90;99.90;;;;;;5026879;28;20553;-60
2023/01/09 12:12:35;;;;;;;48.47;21.93;;;7.90;99.90;;;;;;5028236;28;20217;-61
2023/01/09 12:15:27;;;;;;;53.23;24.37;;;7.90;99.90;;;;;;5027808;28;20277;-61
2023/01/09 12:18:24;;;;;;;53.43;23.73;;;7.90;99.90;;;;;;5027463;28;20251;-61
2023/01/09 12:21:16;;;;;;;52.40;22.27;;;7.90;99.90;;;;;;5020818;28;20206;-61
2023/01/09 12:24:01;;;;;;;45.73;19.47;;;7.90;99.90;;;;;;5027018;28;20195;-61
2023/01/09 12:26:32;;;;;;;35.17;17.37;;;7.90;99.90;;;;;;5027426;28;20683;-61
2023/01/09 12:29:24;;;;;;;55.70;24.33;;;8.00;99.90;;;;;;5028090;28;20593;-61
2023/01/09 12:32:06;;;;;;;65.83;27.37;;;7.90;99.90;;;;;;5027511;28;20298;-61
2023/01/09 12:34:58;;;;;;;52.13;23.97;;;7.90;99.90;;;;;;5026113;28;20282;-61
2023/01/09 12:37:53;;;;;;;55.50;22.93;;;7.90;99.90;;;;;;5028603;28;20186;-61
2023/01/09 12:40:32;;;;;;;53.70;23.70;;;7.90;99.90;;;;;;5024754;28;20265;-61
2023/01/09 12:43:11;;;;;;;64.40;26.77;;;7.90;99.90;;;;;;5027336;28;20222;-61
2023/01/09 12:45:50;;;;;;;58.43;26.33;;;7.90;99.90;;;;;;5027390;28;20285;-61
2023/01/09 12:48:38;;;;;;;47.53;21.70;;;7.90;99.90;;;;;;5029914;28;20690;-61
2023/01/09 12:51:14;;;;;;;51.73;22.93;;;7.80;99.90;;;;;;5027544;28;20191;-61
2023/01/09 12:53:44;;;;;;;58.67;24.43;;;7.90;99.90;;;;;;5027404;28;20222;-61
2023/01/09 12:56:15;;;;;;;57.30;25.37;;;7.80;99.90;;;;;;5026993;28;20592;-61
2023/01/09 12:58:49;;;;;;;64.30;26.07;;;7.90;99.90;;;;;;5027226;28;20190;-61
2023/01/09 13:01:22;;;;;;;64.67;26.57;;;7.90;99.90;;;;;;5025239;28;20182;-61
2023/01/09 13:04:04;;;;;;;51.10;22.37;;;7.80;99.90;;;;;;5025291;28;20214;-61
2023/01/09 13:06:34;;;;;;;61.27;25.43;;;7.80;99.90;;;;;;5025047;28;20275;-60